Gaoyi, China
Current Conditions -  °F | °C
As of 4:00 AM on Sunday 26 Oct 2014 (Local Time) from ZBSJ Reporting Station
Moderate Fog Moderate Fog  
Wind Chill: 55°   Ceiling: 1000
Heat Index: 55°   Visibility: 0.12mi
Dew Point: 55°   Wind: 9mph
Humidity: 100%   Direction: 50°NE
Pressure: 30"   Gusts: NA
Location:  37.6°N, 114.6°E
Report Text: ZBSJ 252000Z 05004MPS 0200 R15/0400N FG VV010 13/13 Q1016 NOSIG
Loading
Personal Weather Stations






























Interactive Weather Map
Tropical Storm Tracking
New forecast layout! Learn more

10-Day Weather Forecast

Advertisements
Track Severe Weather on mobile